createdAt,value
2022-07-26T00:01:31.927Z,61.31
2022-07-26T00:03:59.591Z,61.24
2022-07-26T00:06:26.496Z,61.19
2022-07-26T00:08:53.739Z,61.37
2022-07-26T00:11:21.376Z,61.41
2022-07-26T00:13:48.733Z,61.18
2022-07-26T00:16:15.736Z,61.32
2022-07-26T00:18:42.895Z,61.45
2022-07-26T00:21:09.892Z,61.66
2022-07-26T00:23:39.309Z,61.33
2022-07-26T00:26:06.291Z,61.65
2022-07-26T00:28:33.135Z,61.34
2022-07-26T00:31:00.994Z,61.41
2022-07-26T00:33:27.887Z,61.39
2022-07-26T00:35:54.739Z,61.16
2022-07-26T00:38:21.653Z,61.20
2022-07-26T00:40:48.498Z,61.26
2022-07-26T00:43:15.411Z,61.21
2022-07-26T00:45:42.688Z,61.23
2022-07-26T00:48:09.590Z,61.23
2022-07-26T00:50:38.109Z,61.21
2022-07-26T00:53:05.158Z,61.27
2022-07-26T00:55:32.821Z,61.27
2022-07-26T00:58:01.511Z,61.54
2022-07-26T01:00:29.371Z,61.61
2022-07-26T01:02:57.535Z,61.22
2022-07-26T01:05:24.978Z,61.58
2022-07-26T01:07:53.322Z,61.52
2022-07-26T01:10:20.677Z,61.41
2022-07-26T01:12:47.781Z,61.42
2022-07-26T01:15:16.571Z,61.34
2022-07-26T01:17:44.158Z,61.28
2022-07-26T01:20:13.025Z,61.20
2022-07-26T01:22:40.246Z,61.11
2022-07-26T01:25:07.953Z,60.51
2022-07-26T01:27:39.689Z,60.09
2022-07-26T01:30:11.748Z,60.33
2022-07-26T01:32:38.880Z,59.98
2022-07-26T01:35:07.482Z,60.01
2022-07-26T01:37:34.407Z,60.41
2022-07-26T01:40:01.328Z,60.55
2022-07-26T01:42:28.294Z,60.52
2022-07-26T01:44:55.205Z,60.63
2022-07-26T01:47:22.176Z,60.79
2022-07-26T01:49:49.088Z,60.63
2022-07-26T01:52:16.010Z,60.72
2022-07-26T01:54:42.912Z,61.00
2022-07-26T01:57:09.737Z,60.89
2022-07-26T01:59:36.685Z,61.24
2022-07-26T02:02:03.631Z,60.91
2022-07-26T02:04:49.553Z,61.10
2022-07-26T02:07:16.439Z,61.08
2022-07-26T02:09:43.367Z,60.96
2022-07-26T02:12:10.289Z,60.92
2022-07-26T02:14:37.289Z,61.03
2022-07-26T02:17:04.308Z,61.00
2022-07-26T02:19:32.003Z,61.12
2022-07-26T02:21:59.802Z,61.07
2022-07-26T02:24:29.989Z,61.01
2022-07-26T02:26:58.393Z,61.11
2022-07-26T02:29:25.564Z,61.12
2022-07-26T02:31:53.499Z,61.04
2022-07-26T02:34:20.893Z,61.23
2022-07-26T02:36:47.798Z,60.91
2022-07-26T02:39:15.179Z,60.94
2022-07-26T02:41:42.530Z,60.55
2022-07-26T02:44:10.576Z,60.22
2022-07-26T02:46:38.474Z,60.03
2022-07-26T02:49:05.670Z,59.98
2022-07-26T02:51:32.776Z,60.27
2022-07-26T02:53:59.662Z,60.12
2022-07-26T02:56:26.501Z,60.19
2022-07-26T02:58:53.379Z,59.81
2022-07-26T03:01:20.331Z,59.77
2022-07-26T03:03:50.858Z,60.07
2022-07-26T03:06:19.305Z,60.18
2022-07-26T03:08:46.912Z,60.04
2022-07-26T03:11:13.829Z,59.69
2022-07-26T03:13:40.916Z,59.24
2022-07-26T03:16:08.503Z,58.99
2022-07-26T03:18:35.587Z,59.35
2022-07-26T03:21:02.807Z,59.34
2022-07-26T03:23:33.666Z,59.63
2022-07-26T03:26:02.241Z,59.97
2022-07-26T03:28:33.456Z,60.02
2022-07-26T03:31:01.055Z,59.43
2022-07-26T03:33:29.965Z,59.23
2022-07-26T03:35:56.953Z,58.79
2022-07-26T03:38:24.261Z,59.05
2022-07-26T03:40:51.150Z,58.71
2022-07-26T03:43:23.070Z,59.42
2022-07-26T03:45:50.444Z,59.39
2022-07-26T03:48:17.415Z,59.81
2022-07-26T03:50:44.377Z,59.60
2022-07-26T03:53:11.248Z,59.88
2022-07-26T03:55:56.749Z,60.38
2022-07-26T03:58:23.568Z,60.07
2022-07-26T04:00:50.530Z,60.26
2022-07-26T04:03:17.514Z,60.20
2022-07-26T04:05:48.864Z,60.18
2022-07-26T04:08:16.589Z,60.08
2022-07-26T04:10:48.511Z,60.45
2022-07-26T04:13:15.386Z,60.27
2022-07-26T04:15:42.295Z,59.79
2022-07-26T04:18:09.533Z,59.62
2022-07-26T04:20:36.486Z,59.67
2022-07-26T04:23:03.366Z,60.07
2022-07-26T04:25:38.729Z,59.92
2022-07-26T04:28:08.630Z,60.39
2022-07-26T04:30:35.607Z,60.35
2022-07-26T04:33:02.533Z,60.42
2022-07-26T04:35:29.438Z,60.44
2022-07-26T04:37:56.351Z,60.35
2022-07-26T04:40:24.036Z,60.56
2022-07-26T04:42:52.309Z,60.12
2022-07-26T04:45:19.736Z,60.27
2022-07-26T04:47:51.596Z,59.96
2022-07-26T04:50:20.508Z,59.73
2022-07-26T04:52:48.399Z,59.76
2022-07-26T04:55:15.683Z,59.53
2022-07-26T04:57:42.983Z,59.81
2022-07-26T05:00:22.160Z,59.74
2022-07-26T05:02:50.454Z,59.88
2022-07-26T05:05:17.458Z,60.04
2022-07-26T05:07:52.840Z,60.00
2022-07-26T05:10:21.227Z,59.66
2022-07-26T05:12:49.037Z,59.68
2022-07-26T05:15:16.097Z,59.67
2022-07-26T05:17:43.797Z,59.42
2022-07-26T05:20:15.929Z,59.64
2022-07-26T05:22:43.188Z,59.78
2022-07-26T05:25:10.477Z,59.22
2022-07-26T05:27:37.489Z,59.84
2022-07-26T05:30:04.583Z,60.10
2022-07-26T05:32:31.498Z,57.43
2022-07-26T05:34:58.328Z,55.56
2022-07-26T05:37:25.227Z,55.37
2022-07-26T05:39:52.154Z,54.77
2022-07-26T05:42:19.065Z,54.94
2022-07-26T05:44:45.979Z,56.21
2022-07-26T05:47:13.258Z,57.93
2022-07-26T05:49:40.900Z,58.53
2022-07-26T05:52:09.251Z,58.67
2022-07-26T05:54:36.559Z,58.78
2022-07-26T05:57:03.972Z,59.05
2022-07-26T05:59:31.057Z,59.33
2022-07-26T06:01:57.986Z,59.11
2022-07-26T06:04:26.990Z,59.54
2022-07-26T06:06:55.319Z,59.74
2022-07-26T06:09:25.090Z,59.74
2022-07-26T06:11:52.143Z,59.93
2022-07-26T06:14:20.707Z,59.98
2022-07-26T06:16:48.472Z,60.33
2022-07-26T06:19:16.039Z,60.16
2022-07-26T06:21:43.109Z,60.26
2022-07-26T06:24:10.366Z,60.42
2022-07-26T06:26:37.737Z,60.28
2022-07-26T06:29:05.035Z,60.46
2022-07-26T06:31:32.062Z,60.63
2022-07-26T06:33:59.020Z,60.40
2022-07-26T06:36:30.337Z,60.53
2022-07-26T06:38:58.093Z,60.46
2022-07-26T06:41:25.051Z,60.68
2022-07-26T06:43:52.186Z,60.79
2022-07-26T06:46:21.319Z,60.73
2022-07-26T06:48:52.686Z,60.72
2022-07-26T06:51:20.054Z,60.78
2022-07-26T06:53:47.016Z,60.79
2022-07-26T06:56:15.223Z,60.79
2022-07-26T06:58:42.981Z,60.90
2022-07-26T07:01:10.097Z,61.08
2022-07-26T07:03:37.241Z,60.97
2022-07-26T07:06:04.324Z,60.96
2022-07-26T07:08:31.273Z,61.25
2022-07-26T07:10:59.697Z,61.26
2022-07-26T07:13:28.682Z,61.17
2022-07-26T07:15:55.603Z,60.95
2022-07-26T07:18:22.538Z,60.59
2022-07-26T07:20:49.507Z,60.55
2022-07-26T07:23:16.607Z,60.43
2022-07-26T07:25:44.894Z,60.04
2022-07-26T07:28:12.153Z,59.94
2022-07-26T07:30:39.225Z,60.35
2022-07-26T07:33:07.556Z,60.34
2022-07-26T07:35:34.420Z,60.33
2022-07-26T07:38:03.142Z,60.37
2022-07-26T07:40:30.509Z,60.25
2022-07-26T07:42:58.612Z,60.19
2022-07-26T07:45:25.488Z,60.54
2022-07-26T07:47:52.459Z,60.15
2022-07-26T07:50:19.422Z,60.26
2022-07-26T07:52:46.331Z,60.34
2022-07-26T07:55:41.195Z,60.36
2022-07-26T07:58:01.906Z,60.04
2022-07-26T08:00:29.026Z,60.12
2022-07-26T08:02:56.020Z,60.12
2022-07-26T08:05:23.188Z,60.29
2022-07-26T08:07:50.166Z,60.19
2022-07-26T08:10:19.888Z,60.05
2022-07-26T08:12:47.102Z,59.93
2022-07-26T08:15:19.466Z,60.42
2022-07-26T08:17:52.240Z,60.33
2022-07-26T08:20:23.697Z,60.43
2022-07-26T08:22:52.448Z,60.55
2022-07-26T08:25:19.805Z,60.20
2022-07-26T08:28:02.520Z,60.15
2022-07-26T08:30:30.285Z,60.49
2022-07-26T08:32:57.241Z,60.56
2022-07-26T08:35:24.221Z,60.23
2022-07-26T08:37:51.481Z,60.21
2022-07-26T08:40:18.527Z,60.14
2022-07-26T08:42:56.745Z,60.39
2022-07-26T08:45:29.462Z,60.23
2022-07-26T08:48:16.531Z,58.52
2022-07-26T08:50:44.691Z,55.71
2022-07-26T08:53:13.382Z,54.57
2022-07-26T08:56:05.284Z,54.14
2022-07-26T08:58:27.616Z,55.60
2022-07-26T09:01:09.423Z,56.55
2022-07-26T09:03:38.342Z,56.72
2022-07-26T09:06:20.496Z,56.53
2022-07-26T09:08:49.932Z,57.55
2022-07-26T09:11:27.498Z,58.28
2022-07-26T09:14:03.324Z,58.65
2022-07-26T09:16:36.008Z,58.84
2022-07-26T09:19:22.920Z,58.82
2022-07-26T09:21:50.624Z,58.89
2022-07-26T09:24:32.467Z,58.67
2022-07-26T09:27:01.277Z,59.23
2022-07-26T09:29:32.432Z,58.99
2022-07-26T09:32:18.019Z,59.07
2022-07-26T09:34:57.726Z,58.97
2022-07-26T09:37:40.282Z,59.10
2022-07-26T09:40:09.916Z,59.16
2022-07-26T09:42:36.933Z,59.07
2022-07-26T09:45:15.766Z,59.26
2022-07-26T09:47:42.878Z,59.21
2022-07-26T09:50:33.723Z,59.67
2022-07-26T09:53:12.046Z,59.53
2022-07-26T09:55:45.246Z,59.70
2022-07-26T09:58:14.507Z,59.64
2022-07-26T10:00:42.282Z,59.67
2022-07-26T10:03:09.590Z,59.82
2022-07-26T10:05:37.735Z,59.76
2022-07-26T10:08:05.954Z,60.00
2022-07-26T10:10:40.448Z,60.23
2022-07-26T10:13:08.873Z,60.20
2022-07-26T10:15:44.260Z,59.90
2022-07-26T10:18:39.152Z,59.83
2022-07-26T10:21:16.284Z,60.09
2022-07-26T10:23:49.319Z,60.18
2022-07-26T10:26:31.562Z,60.14
2022-07-26T10:29:16.881Z,59.78
2022-07-26T10:31:49.882Z,59.76
2022-07-26T10:34:37.357Z,59.68
2022-07-26T10:37:07.318Z,59.57
2022-07-26T10:39:34.665Z,59.71
2022-07-26T10:42:09.525Z,59.95
2022-07-26T10:44:47.377Z,59.87
2022-07-26T10:47:16.826Z,59.83
2022-07-26T10:49:55.829Z,59.98
2022-07-26T10:54:59.526Z,57.30
2022-07-26T10:57:47.020Z,56.14
2022-07-26T11:00:22.987Z,54.90
2022-07-26T11:02:54.248Z,54.41
2022-07-26T11:05:23.591Z,53.36
2022-07-26T11:07:58.454Z,53.41
2022-07-26T11:10:26.610Z,53.98
2022-07-26T11:13:25.627Z,53.65
2022-07-26T11:16:05.441Z,53.72
2022-07-26T11:18:37.745Z,53.23
2022-07-26T11:21:16.931Z,53.55
2022-07-26T11:23:48.324Z,53.89
2022-07-26T11:26:16.460Z,54.91
2022-07-26T11:28:55.605Z,55.53
2022-07-26T11:31:51.138Z,55.82
2022-07-26T11:34:29.171Z,56.64
2022-07-26T11:36:58.936Z,56.87
2022-07-26T11:39:43.661Z,57.86
2022-07-26T11:42:13.526Z,58.18
2022-07-26T11:44:44.838Z,58.28
2022-07-26T11:47:14.452Z,56.41
2022-07-26T11:49:59.892Z,56.53
2022-07-26T11:52:32.493Z,55.83
2022-07-26T11:54:59.830Z,55.50
2022-07-26T11:57:31.982Z,55.20
2022-07-26T12:00:00.895Z,55.03
2022-07-26T12:02:29.148Z,54.67
2022-07-26T12:05:22.642Z,54.25
2022-07-26T12:07:54.038Z,54.30
2022-07-26T12:10:21.090Z,54.13
2022-07-26T12:12:48.032Z,54.04
2022-07-26T12:15:15.926Z,53.62
2022-07-26T12:18:01.379Z,53.24
2022-07-26T12:20:28.587Z,53.17
2022-07-26T12:22:56.781Z,53.55
2022-07-26T12:25:29.955Z,53.42
2022-07-26T12:27:57.092Z,53.28
2022-07-26T12:30:24.398Z,52.94
2022-07-26T12:32:54.779Z,52.79
2022-07-26T12:35:33.819Z,53.16
2022-07-26T12:38:01.302Z,52.85
2022-07-26T12:40:30.786Z,53.62
2022-07-26T12:43:02.448Z,54.76
2022-07-26T12:45:35.182Z,55.05
2022-07-26T12:48:07.228Z,55.65
2022-07-26T12:50:34.143Z,55.34
2022-07-26T12:53:06.268Z,55.56
2022-07-26T12:55:34.295Z,56.26
2022-07-26T12:58:01.388Z,56.39
2022-07-26T13:00:30.019Z,56.43
2022-07-26T13:02:57.949Z,56.77
2022-07-26T13:05:25.717Z,56.89
2022-07-26T13:07:52.866Z,57.40
2022-07-26T13:10:33.027Z,57.40
2022-07-26T13:13:00.369Z,57.53
2022-07-26T13:15:36.331Z,57.83
2022-07-26T13:18:08.880Z,57.64
2022-07-26T13:20:39.828Z,57.64
2022-07-26T13:23:13.735Z,57.98
2022-07-26T13:25:41.244Z,57.81
2022-07-26T13:28:09.266Z,58.26
2022-07-26T13:30:38.553Z,57.22
2022-07-26T13:33:05.727Z,54.52
2022-07-26T13:35:32.752Z,54.24
2022-07-26T13:37:59.645Z,53.58
2022-07-26T13:40:31.577Z,53.82
2022-07-26T13:42:59.183Z,52.69
2022-07-26T13:45:29.301Z,52.06
2022-07-26T13:48:00.217Z,51.44
2022-07-26T13:50:28.389Z,51.50
2022-07-26T13:52:56.878Z,50.75
2022-07-26T13:55:24.998Z,51.01
2022-07-26T13:57:56.620Z,51.09
2022-07-26T14:00:26.276Z,50.78
2022-07-26T14:02:53.993Z,50.70
2022-07-26T14:05:21.195Z,50.27
2022-07-26T14:07:48.341Z,50.42
2022-07-26T14:10:15.590Z,50.93
2022-07-26T14:12:42.499Z,52.01
2022-07-26T14:15:15.257Z,52.22
2022-07-26T14:17:47.574Z,51.92
2022-07-26T14:20:15.707Z,51.75
2022-07-26T14:22:42.725Z,52.08
2022-07-26T14:25:10.237Z,51.63
2022-07-26T14:27:37.749Z,51.33
2022-07-26T14:30:05.665Z,51.50
2022-07-26T14:32:32.658Z,51.39
2022-07-26T14:34:59.621Z,51.38
2022-07-26T14:37:44.192Z,51.46
2022-07-26T14:40:14.536Z,51.38
2022-07-26T14:42:41.774Z,51.41
2022-07-26T14:45:10.022Z,51.51
2022-07-26T14:47:37.827Z,51.32
2022-07-26T14:50:07.304Z,51.05
2022-07-26T14:52:37.523Z,50.45
2022-07-26T14:55:05.575Z,50.25
2022-07-26T14:57:32.651Z,50.46
2022-07-26T15:00:02.328Z,51.21
2022-07-26T15:02:29.628Z,50.75
2022-07-26T15:04:57.507Z,49.95
2022-07-26T15:07:24.849Z,49.92
2022-07-26T15:09:51.883Z,50.04
2022-07-26T15:12:21.878Z,50.41
2022-07-26T15:14:48.877Z,50.76
2022-07-26T15:17:16.304Z,50.81
2022-07-26T15:19:43.243Z,50.71
2022-07-26T15:22:10.291Z,50.37
2022-07-26T15:24:39.957Z,50.24
2022-07-26T15:27:07.541Z,50.07
2022-07-26T15:29:36.168Z,50.00
2022-07-26T15:32:04.321Z,49.85
2022-07-26T15:34:32.178Z,49.54
2022-07-26T15:36:59.163Z,48.95
2022-07-26T15:39:26.059Z,48.75
2022-07-26T15:41:53.177Z,48.57
2022-07-26T15:44:24.292Z,48.61
2022-07-26T15:46:53.157Z,48.78
2022-07-26T15:49:20.720Z,48.18
2022-07-26T15:51:47.950Z,48.45
2022-07-26T15:54:16.672Z,48.92
2022-07-26T15:56:44.363Z,48.86
2022-07-26T15:59:12.073Z,48.72
2022-07-26T16:01:39.207Z,49.22
2022-07-26T16:04:06.475Z,48.88
2022-07-26T16:06:34.350Z,48.64
2022-07-26T16:09:19.279Z,48.65
2022-07-26T16:11:48.415Z,48.39
2022-07-26T16:14:16.689Z,48.63
2022-07-26T16:16:44.314Z,48.03
2022-07-26T16:19:12.427Z,48.37
2022-07-26T16:21:40.748Z,48.55
2022-07-26T16:24:08.235Z,48.64
2022-07-26T16:26:36.059Z,48.37
2022-07-26T16:29:03.890Z,48.94
2022-07-26T16:31:31.484Z,48.26
2022-07-26T16:33:58.788Z,48.76
2022-07-26T16:36:25.889Z,48.79
2022-07-26T16:38:52.952Z,48.79
2022-07-26T16:41:20.104Z,49.13
2022-07-26T16:43:47.046Z,48.74
2022-07-26T16:46:14.194Z,48.69
2022-07-26T16:48:41.194Z,48.71
2022-07-26T16:51:08.330Z,47.96
2022-07-26T16:53:35.555Z,48.22
2022-07-26T16:56:02.507Z,47.83
2022-07-26T16:58:29.430Z,47.44
2022-07-26T17:00:56.609Z,47.55
2022-07-26T17:03:24.138Z,47.54
2022-07-26T17:05:52.019Z,47.56
2022-07-26T17:08:19.265Z,47.38
2022-07-26T17:10:46.618Z,47.19
2022-07-26T17:13:13.703Z,47.32
2022-07-26T17:15:40.893Z,47.21
2022-07-26T17:18:07.882Z,47.63
2022-07-26T17:20:35.268Z,48.34
2022-07-26T17:23:02.332Z,48.29
2022-07-26T17:25:29.419Z,48.17
2022-07-26T17:27:57.391Z,48.04
2022-07-26T17:30:24.765Z,48.35
2022-07-26T17:32:52.751Z,48.49
2022-07-26T17:35:20.904Z,49.00
2022-07-26T17:37:48.317Z,50.01
2022-07-26T17:40:17.437Z,51.34
2022-07-26T17:42:44.444Z,51.88
2022-07-26T17:45:11.817Z,51.06
2022-07-26T17:47:38.795Z,52.24
2022-07-26T17:50:34.094Z,52.39
2022-07-26T17:52:55.283Z,52.88
2022-07-26T17:55:22.855Z,53.17
2022-07-26T17:57:51.133Z,53.07
2022-07-26T18:00:21.584Z,53.79
2022-07-26T18:02:49.369Z,53.88
2022-07-26T18:05:17.040Z,54.27
2022-07-26T18:07:44.155Z,54.22
2022-07-26T18:10:11.910Z,54.48
2022-07-26T18:12:39.018Z,54.54
2022-07-26T18:15:07.928Z,54.75
2022-07-26T18:17:35.107Z,54.72
2022-07-26T18:20:02.395Z,55.08
2022-07-26T18:22:29.684Z,54.98
2022-07-26T18:24:56.944Z,54.93
2022-07-26T18:27:28.385Z,55.42
2022-07-26T18:29:56.703Z,55.20
2022-07-26T18:32:27.876Z,55.48
2022-07-26T18:34:56.239Z,55.64
2022-07-26T18:37:23.822Z,55.73
2022-07-26T18:39:57.095Z,55.93
2022-07-26T18:42:24.978Z,56.21
2022-07-26T18:44:52.494Z,54.64
2022-07-26T18:47:19.788Z,55.61
2022-07-26T18:49:47.210Z,56.19
2022-07-26T18:52:15.287Z,56.10
2022-07-26T18:54:45.007Z,56.35
2022-07-26T18:57:13.783Z,56.49
2022-07-26T18:59:40.972Z,56.58
2022-07-26T19:02:08.133Z,56.63
2022-07-26T19:04:35.848Z,56.65
2022-07-26T19:07:03.281Z,56.52
2022-07-26T19:09:31.180Z,56.63
2022-07-26T19:11:59.262Z,56.87
2022-07-26T19:14:29.875Z,56.97
2022-07-26T19:16:56.982Z,56.80
2022-07-26T19:19:24.936Z,56.90
2022-07-26T19:21:53.773Z,57.09
2022-07-26T19:24:23.215Z,57.25
2022-07-26T19:26:50.475Z,56.94
2022-07-26T19:29:18.730Z,56.79
2022-07-26T19:31:48.596Z,56.94
2022-07-26T19:34:15.829Z,56.83
2022-07-26T19:36:43.015Z,56.82
2022-07-26T19:39:10.721Z,56.79
2022-07-26T19:41:39.240Z,57.03
2022-07-26T19:44:06.717Z,56.91
2022-07-26T19:46:34.838Z,57.37
2022-07-26T19:49:05.599Z,56.94
2022-07-26T19:51:33.270Z,56.97
2022-07-26T19:54:01.013Z,57.26
2022-07-26T19:56:29.371Z,57.25
2022-07-26T19:58:57.709Z,57.22
2022-07-26T20:01:25.002Z,57.19
2022-07-26T20:03:55.540Z,57.15
2022-07-26T20:06:27.652Z,57.25
2022-07-26T20:08:55.300Z,57.19
2022-07-26T20:11:27.932Z,57.29
2022-07-26T20:13:56.063Z,57.19
2022-07-26T20:16:23.538Z,57.43
2022-07-26T20:18:56.576Z,57.75
2022-07-26T20:21:23.959Z,57.52
2022-07-26T20:23:51.354Z,57.61
2022-07-26T20:26:18.607Z,57.37
2022-07-26T20:28:46.767Z,57.46
2022-07-26T20:31:18.042Z,57.35
2022-07-26T20:33:47.418Z,57.51
2022-07-26T20:36:15.782Z,57.44
2022-07-26T20:38:47.016Z,57.43
2022-07-26T20:41:16.897Z,57.43
2022-07-26T20:43:48.786Z,57.46
2022-07-26T20:46:16.418Z,57.50
2022-07-26T20:48:47.516Z,57.57
2022-07-26T20:51:14.925Z,57.76
2022-07-26T20:53:44.133Z,57.65
2022-07-26T20:56:11.673Z,57.52
2022-07-26T20:58:38.923Z,57.70
2022-07-26T21:01:08.315Z,57.67
2022-07-26T21:03:35.616Z,57.77
2022-07-26T21:06:03.390Z,57.73
2022-07-26T21:08:31.586Z,57.85
2022-07-26T21:10:58.940Z,57.94
2022-07-26T21:13:27.537Z,57.71
2022-07-26T21:15:55.977Z,57.87
2022-07-26T21:18:30.645Z,58.18
2022-07-26T21:20:58.793Z,58.01
2022-07-26T21:23:26.779Z,58.27
2022-07-26T21:25:58.223Z,57.94
2022-07-26T21:28:39.421Z,58.22
2022-07-26T21:31:10.431Z,58.12
2022-07-26T21:33:49.423Z,58.19
2022-07-26T21:36:21.893Z,58.20
2022-07-26T21:38:49.493Z,58.10
2022-07-26T21:41:27.537Z,58.40
2022-07-26T21:43:55.527Z,58.10
2022-07-26T21:46:22.890Z,58.16
2022-07-26T21:48:55.268Z,58.14
2022-07-26T21:51:25.001Z,58.56
2022-07-26T21:53:55.969Z,58.33
2022-07-26T21:56:27.945Z,58.29
2022-07-26T21:59:11.707Z,58.58
2022-07-26T22:01:41.042Z,58.46
2022-07-26T22:04:08.582Z,58.57
2022-07-26T22:06:36.106Z,58.35
2022-07-26T22:09:06.345Z,58.43
2022-07-26T22:11:34.869Z,58.75
2022-07-26T22:14:03.284Z,58.81
2022-07-26T22:16:32.036Z,58.43
2022-07-26T22:18:59.481Z,58.74
2022-07-26T22:21:29.610Z,58.85
2022-07-26T22:23:56.761Z,58.82
2022-07-26T22:26:27.716Z,58.70
2022-07-26T22:28:54.966Z,58.42
2022-07-26T22:31:22.055Z,58.79
2022-07-26T22:33:49.163Z,58.75
2022-07-26T22:36:17.930Z,58.80
2022-07-26T22:38:46.739Z,58.81
2022-07-26T22:41:13.759Z,58.91
2022-07-26T22:43:42.326Z,59.15
2022-07-26T22:46:09.654Z,58.98
2022-07-26T22:48:38.658Z,59.07
2022-07-26T22:51:06.640Z,58.77
2022-07-26T22:53:34.926Z,59.07
2022-07-26T22:56:02.067Z,58.95
2022-07-26T22:58:29.173Z,59.10
2022-07-26T23:00:56.625Z,59.21
2022-07-26T23:03:23.713Z,59.09
2022-07-26T23:05:52.298Z,59.16
2022-07-26T23:11:06.651Z,59.26
2022-07-26T23:13:33.930Z,59.31
2022-07-26T23:16:01.908Z,59.35
2022-07-26T23:18:30.835Z,59.46
2022-07-26T23:20:58.620Z,59.58
2022-07-26T23:23:29.847Z,59.46
2022-07-26T23:25:58.276Z,59.28
2022-07-26T23:28:35.527Z,59.49
2022-07-26T23:31:03.731Z,59.44
2022-07-26T23:33:53.282Z,59.42
2022-07-26T23:36:17.883Z,59.60
2022-07-26T23:38:44.861Z,59.43
2022-07-26T23:41:11.802Z,59.63
2022-07-26T23:43:38.741Z,59.51
2022-07-26T23:46:05.690Z,59.55
2022-07-26T23:48:32.733Z,59.61
2022-07-26T23:50:59.656Z,59.65
2022-07-26T23:53:27.269Z,59.51
2022-07-26T23:55:54.663Z,59.62
2022-07-26T23:58:21.968Z,59.67
